Time,TemperatureF,DewpointF,PressureIn,WindDirection,WindDirectionDegrees,WindSpeedMPH,WindSpeedGustMPH,Humidity,HourlyPrecipIn,Conditions,Clouds,dailyrainin,SoftwareType,DateUTC
2013-02-16 00:01:00,48.0,47.0,30.27,SSW,210,9.0,11.0,95,0.00,,,0.01,,2013-02-16 08:01:00,
2013-02-16 00:11:00,48.0,47.0,30.27,SSW,210,9.0,11.0,95,0.00,,,0.01,,2013-02-16 08:11:00,
2013-02-16 00:21:00,47.0,46.0,30.27,SSW,208,9.0,14.0,95,0.00,,,0.01,,2013-02-16 08:21:00,
2013-02-16 00:31:00,47.0,46.0,30.28,SW,220,8.0,9.0,95,0.00,,,0.01,,2013-02-16 08:31:00,
2013-02-16 00:41:00,47.0,46.0,30.28,SW,220,8.0,9.0,95,0.00,,,0.01,,2013-02-16 08:41:00,
2013-02-16 00:52:00,47.0,46.0,30.28,WSW,245,11.0,14.0,95,0.00,,,0.01,,2013-02-16 08:52:00,
2013-02-16 01:01:00,47.0,46.0,30.29,WSW,253,11.0,14.0,95,0.00,,,0.01,,2013-02-16 09:01:00,
2013-02-16 01:11:00,47.0,46.0,30.29,WSW,253,11.0,14.0,95,0.00,,,0.01,,2013-02-16 09:11:00,
2013-02-16 01:21:00,47.0,46.0,30.29,WSW,255,10.0,13.0,95,0.00,,,0.01,,2013-02-16 09:21:00,
2013-02-16 01:31:00,47.0,46.0,30.29,WSW,247,9.0,12.0,95,0.00,,,0.01,,2013-02-16 09:31:00,
2013-02-16 01:42:00,47.0,46.0,30.29,WSW,247,9.0,12.0,95,0.00,,,0.01,,2013-02-16 09:42:00,
2013-02-16 01:51:00,47.0,46.0,30.29,WSW,243,9.0,11.0,95,0.00,,,0.01,,2013-02-16 09:51:00,
2013-02-16 02:01:00,47.0,46.0,30.29,West,265,9.0,11.0,95,0.00,,,0.01,,2013-02-16 10:01:00,
2013-02-16 02:11:00,47.0,46.0,30.29,West,265,9.0,11.0,95,0.00,,,0.01,,2013-02-16 10:11:00,
2013-02-16 02:21:00,47.0,46.0,30.29,WSW,249,9.0,11.0,95,0.00,,,0.01,,2013-02-16 10:21:00,
2013-02-16 02:31:00,47.0,46.0,30.29,WSW,242,7.0,10.0,95,0.00,,,0.00,,2013-02-16 10:31:00,
2013-02-16 02:41:00,47.0,46.0,30.29,WSW,242,7.0,10.0,95,0.00,,,0.00,,2013-02-16 10:41:00,
2013-02-16 02:51:00,47.0,46.0,30.28,WSW,245,6.0,9.0,95,0.00,,,0.00,,2013-02-16 10:51:00,
2013-02-16 03:02:00,47.0,46.0,30.28,WSW,243,6.0,10.0,95,0.00,,,0.00,,2013-02-16 11:02:00,
2013-02-16 03:11:00,47.0,46.0,30.28,WSW,243,6.0,10.0,95,0.00,,,0.00,,2013-02-16 11:11:00,
2013-02-16 03:22:00,47.0,46.0,30.28,West,265,6.0,8.0,95,0.00,,,0.00,,2013-02-16 11:22:00,
2013-02-16 03:31:00,47.0,46.0,30.28,WSW,252,7.0,10.0,95,0.00,,,0.00,,2013-02-16 11:31:00,
2013-02-16 03:42:00,47.0,46.0,30.28,WSW,252,7.0,10.0,95,0.00,,,0.00,,2013-02-16 11:42:00,
2013-02-16 03:52:00,47.0,46.0,30.28,West,270,8.0,9.0,95,0.00,,,0.00,,2013-02-16 11:52:00,
2013-02-16 04:01:00,47.0,46.0,30.28,WSW,257,8.0,11.0,95,0.00,,,0.00,,2013-02-16 12:01:00,
2013-02-16 04:12:00,47.0,46.0,30.28,WSW,257,8.0,11.0,95,0.00,,,0.00,,2013-02-16 12:12:00,
2013-02-16 04:22:00,46.0,45.0,30.28,WNW,286,8.0,11.0,95,0.00,,,0.00,,2013-02-16 12:22:00,
2013-02-16 04:32:00,46.0,45.0,30.28,West,279,8.0,10.0,95,0.00,,,0.00,,2013-02-16 12:32:00,
2013-02-16 04:42:00,46.0,45.0,30.28,West,279,8.0,10.0,95,0.00,,,0.00,,2013-02-16 12:42:00,
2013-02-16 04:52:00,46.0,45.0,30.29,West,275,8.0,11.0,95,0.00,,,0.00,,2013-02-16 12:52:00,
2013-02-16 05:01:00,46.0,45.0,30.29,WNW,291,3.0,9.0,95,0.00,,,0.00,,2013-02-16 13:01:00,
2013-02-16 05:11:00,46.0,45.0,30.29,WNW,291,3.0,9.0,95,0.00,,,0.00,,2013-02-16 13:11:00,
2013-02-16 05:21:00,46.0,45.0,30.29,West,261,3.0,6.0,95,0.00,,,0.00,,2013-02-16 13:21:00,
2013-02-16 05:31:00,46.0,45.0,30.29,SW,231,3.0,6.0,95,0.00,,,0.00,,2013-02-16 13:31:00,
2013-02-16 05:41:00,46.0,45.0,30.29,SW,231,3.0,6.0,95,0.00,,,0.00,,2013-02-16 13:41:00,
2013-02-16 05:51:00,46.0,45.0,30.29,SW,221,5.0,7.0,95,0.00,,,0.00,,2013-02-16 13:51:00,
2013-02-16 06:01:00,46.0,45.0,30.29,West,270,5.0,7.0,95,0.00,,,0.00,,2013-02-16 14:01:00,
2013-02-16 06:11:00,46.0,45.0,30.29,West,270,5.0,7.0,95,0.00,,,0.00,,2013-02-16 14:11:00,
2013-02-16 06:21:00,46.0,45.0,30.30,NW,309,9.0,11.0,95,0.00,,,0.00,,2013-02-16 14:21:00,
2013-02-16 06:32:00,46.0,45.0,30.30,NW,306,8.0,10.0,95,0.00,,,0.00,,2013-02-16 14:32:00,
2013-02-16 06:41:00,46.0,45.0,30.30,NW,306,8.0,10.0,95,0.00,,,0.00,,2013-02-16 14:41:00,
2013-02-16 06:52:00,46.0,45.0,30.30,NW,310,8.0,9.0,95,0.00,,,0.00,,2013-02-16 14:52:00,
2013-02-16 07:01:00,46.0,45.0,30.30,NW,312,6.0,8.0,95,0.00,,,0.00,,2013-02-16 15:01:00,
2013-02-16 07:11:00,46.0,45.0,30.30,NW,312,6.0,8.0,95,0.00,,,0.00,,2013-02-16 15:11:00,
2013-02-16 07:21:00,46.0,45.0,30.30,NW,309,7.0,9.0,95,0.00,,,0.00,,2013-02-16 15:21:00,
2013-02-16 07:31:00,46.0,45.0,30.30,NW,316,6.0,9.0,95,0.00,,,0.00,,2013-02-16 15:31:00,
2013-02-16 07:41:00,46.0,45.0,30.30,NW,316,6.0,9.0,95,0.00,,,0.00,,2013-02-16 15:41:00,
2013-02-16 07:51:00,46.0,45.0,30.30,NW,308,8.0,11.0,95,0.00,,,0.00,,2013-02-16 15:51:00,
2013-02-16 08:01:00,46.0,45.0,30.30,NW,308,7.0,9.0,95,0.00,,,0.00,,2013-02-16 16:01:00,
2013-02-16 08:11:00,46.0,45.0,30.30,NW,308,7.0,9.0,95,0.00,,,0.00,,2013-02-16 16:11:00,
2013-02-16 08:21:00,46.0,45.0,30.31,NW,314,5.0,9.0,95,0.00,,,0.00,,2013-02-16 16:21:00,
2013-02-16 08:32:00,46.0,45.0,30.32,WNW,303,6.0,8.0,95,0.00,,,0.00,,2013-02-16 16:32:00,
2013-02-16 08:41:00,46.0,45.0,30.32,WNW,303,6.0,8.0,95,0.00,,,0.00,,2013-02-16 16:41:00,
2013-02-16 08:51:00,46.0,45.0,30.32,WNW,292,7.0,9.0,95,0.00,,,0.00,,2013-02-16 16:51:00,
2013-02-16 09:01:00,46.0,45.0,30.32,WNW,296,5.0,10.0,95,0.00,,,0.00,,2013-02-16 17:01:00,
2013-02-16 09:11:00,46.0,45.0,30.32,WNW,296,5.0,10.0,95,0.00,,,0.00,,2013-02-16 17:11:00,
2013-02-16 09:21:00,46.0,45.0,30.33,North,350,0.0,9.0,95,0.01,,,0.01,,2013-02-16 17:21:00,
2013-02-16 09:31:00,46.0,45.0,30.33,North,350,0.0,9.0,95,0.01,,,0.01,,2013-02-16 17:31:00,
2013-02-16 09:41:00,46.0,45.0,30.33,North,350,0.0,9.0,95,0.01,,,0.01,,2013-02-16 17:41:00,
2013-02-16 09:52:00,46.0,45.0,30.33,WNW,294,3.0,5.0,95,0.01,,,0.01,,2013-02-16 17:52:00,
2013-02-16 10:02:00,47.0,46.0,30.33,NW,305,0.0,1.0,95,0.01,,,0.01,,2013-02-16 18:02:00,
2013-02-16 10:11:00,47.0,45.0,30.33,West,279,2.0,4.0,94,0.00,,,0.01,,2013-02-16 18:11:00,
2013-02-16 10:21:00,47.0,45.0,30.33,West,279,2.0,4.0,94,0.00,,,0.01,,2013-02-16 18:21:00,
2013-02-16 10:32:00,47.0,45.0,30.33,WNW,286,2.0,5.0,94,0.00,,,0.01,,2013-02-16 18:32:00,
2013-02-16 10:41:00,47.0,45.0,30.33,WNW,286,2.0,5.0,94,0.00,,,0.01,,2013-02-16 18:41:00,
2013-02-16 10:51:00,47.0,45.0,30.33,West,265,0.0,1.0,93,0.00,,,0.01,,2013-02-16 18:51:00,
2013-02-16 11:02:00,48.0,46.0,30.33,West,265,0.0,3.0,93,0.00,,,0.01,,2013-02-16 19:02:00,
2013-02-16 11:11:00,48.0,46.0,30.33,West,265,0.0,3.0,93,0.00,,,0.01,,2013-02-16 19:11:00,
2013-02-16 11:21:00,48.0,46.0,30.33,WSW,241,0.0,3.0,93,0.00,,,0.01,,2013-02-16 19:21:00,
2013-02-16 11:31:00,49.0,47.0,30.33,WSW,253,0.0,3.0,94,0.00,,,0.01,,2013-02-16 19:31:00,
2013-02-16 11:42:00,49.0,47.0,30.33,WSW,253,0.0,3.0,94,0.00,,,0.01,,2013-02-16 19:42:00,
2013-02-16 11:52:00,49.0,47.0,30.34,WSW,241,0.0,4.0,94,0.00,,,0.01,,2013-02-16 19:52:00,
2013-02-16 12:01:00,49.0,47.0,30.34,WSW,240,2.0,4.0,94,0.00,,,0.01,,2013-02-16 20:01:00,
2013-02-16 12:11:00,49.0,47.0,30.34,WSW,240,2.0,4.0,94,0.00,,,0.01,,2013-02-16 20:11:00,
2013-02-16 12:21:00,49.0,47.0,30.34,WSW,255,3.0,5.0,92,0.00,,,0.01,,2013-02-16 20:21:00,
2013-02-16 12:32:00,48.0,46.0,30.34,West,275,3.0,5.0,92,0.00,,,0.01,,2013-02-16 20:32:00,
2013-02-16 12:42:00,48.0,46.0,30.34,West,275,3.0,5.0,92,0.00,,,0.01,,2013-02-16 20:42:00,
2013-02-16 12:52:00,48.0,46.0,30.33,WNW,287,9.0,11.0,93,0.00,,,0.01,,2013-02-16 20:52:00,
2013-02-16 13:02:00,48.0,46.0,30.33,West,275,7.0,10.0,93,0.00,,,0.01,,2013-02-16 21:02:00,
2013-02-16 13:11:00,48.0,46.0,30.33,West,275,7.0,10.0,93,0.00,,,0.01,,2013-02-16 21:11:00,
2013-02-16 13:21:00,49.0,47.0,30.32,West,270,9.0,10.0,92,0.00,,,0.01,,2013-02-16 21:21:00,
2013-02-16 13:31:00,48.0,46.0,30.32,West,270,8.0,10.0,92,0.00,,,0.01,,2013-02-16 21:31:00,
2013-02-16 13:41:00,48.0,46.0,30.32,West,270,8.0,10.0,92,0.00,,,0.01,,2013-02-16 21:41:00,
2013-02-16 13:52:00,48.0,46.0,30.32,West,270,8.0,10.0,92,0.00,,,0.01,,2013-02-16 21:52:00,
2013-02-16 14:01:00,47.0,45.0,30.32,NNW,338,8.0,10.0,93,0.00,,,0.01,,2013-02-16 22:01:00,
2013-02-16 14:11:00,47.0,45.0,30.32,NNW,338,8.0,10.0,93,0.00,,,0.01,,2013-02-16 22:11:00,
2013-02-16 14:21:00,47.0,45.0,30.32,NNW,348,7.0,10.0,92,0.00,,,0.01,,2013-02-16 22:21:00,
2013-02-16 14:32:00,47.0,45.0,30.31,NNW,339,5.0,9.0,92,0.00,,,0.01,,2013-02-16 22:32:00,
2013-02-16 14:42:00,47.0,45.0,30.31,NNW,339,5.0,9.0,92,0.00,,,0.01,,2013-02-16 22:42:00,
2013-02-16 14:51:00,47.0,45.0,30.31,NNW,339,5.0,9.0,92,0.00,,,0.01,,2013-02-16 22:51:00,
2013-02-16 15:02:00,48.0,45.0,30.32,NW,320,4.0,7.0,90,0.00,,,0.01,,2013-02-16 23:02:00,
2013-02-16 15:11:00,48.0,45.0,30.32,NW,320,4.0,7.0,90,0.00,,,0.01,,2013-02-16 23:11:00,
2013-02-16 15:21:00,49.0,46.0,30.32,WNW,303,5.0,7.0,89,0.00,,,0.01,,2013-02-16 23:21:00,
2013-02-16 15:31:00,49.0,46.0,30.32,WNW,302,5.0,8.0,89,0.00,,,0.01,,2013-02-16 23:31:00,
2013-02-16 15:42:00,49.0,46.0,30.32,WNW,302,5.0,8.0,89,0.00,,,0.01,,2013-02-16 23:42:00,
2013-02-16 15:52:00,48.0,45.0,30.32,WNW,296,5.0,8.0,90,0.00,,,0.01,,2013-02-16 23:52:00,
2013-02-16 16:01:00,49.0,46.0,30.32,WNW,298,4.0,8.0,89,0.00,,,0.01,,2013-02-17 00:01:00,
2013-02-16 16:11:00,49.0,46.0,30.32,WNW,298,4.0,8.0,89,0.00,,,0.01,,2013-02-17 00:11:00,
2013-02-16 16:21:00,49.0,46.0,30.32,NW,319,12.0,14.0,88,0.00,,,0.01,,2013-02-17 00:21:00,
2013-02-16 16:31:00,48.0,45.0,30.32,NNW,333,11.0,14.0,88,0.00,,,0.01,,2013-02-17 00:31:00,
2013-02-16 16:41:00,48.0,45.0,30.32,NNW,333,11.0,14.0,88,0.00,,,0.01,,2013-02-17 00:41:00,
2013-02-16 16:51:00,48.0,45.0,30.32,NNW,327,12.0,14.0,88,0.00,,,0.01,,2013-02-17 00:51:00,
2013-02-16 17:01:00,48.0,45.0,30.31,NNW,329,11.0,14.0,88,0.00,,,0.01,,2013-02-17 01:01:00,
2013-02-16 17:11:00,48.0,45.0,30.31,NNW,329,11.0,14.0,88,0.00,,,0.01,,2013-02-17 01:11:00,
2013-02-16 17:21:00,48.0,44.0,30.31,NW,323,12.0,13.0,87,0.00,,,0.01,,2013-02-17 01:21:00,
2013-02-16 17:31:00,48.0,44.0,30.31,NNW,331,12.0,14.0,86,0.00,,,0.01,,2013-02-17 01:31:00,
2013-02-16 17:41:00,48.0,44.0,30.31,NNW,331,12.0,14.0,86,0.00,,,0.01,,2013-02-17 01:41:00,
2013-02-16 17:52:00,48.0,44.0,30.31,NNW,339,12.0,14.0,87,0.00,,,0.01,,2013-02-17 01:52:00,
2013-02-16 18:01:00,48.0,45.0,30.31,NNW,347,15.0,18.0,88,0.00,,,0.01,,2013-02-17 02:01:00,
2013-02-16 18:11:00,48.0,45.0,30.31,NNW,347,15.0,18.0,88,0.00,,,0.01,,2013-02-17 02:11:00,
2013-02-16 18:21:00,47.0,43.0,30.31,NNW,338,9.0,16.0,86,0.00,,,0.01,,2013-02-17 02:21:00,
2013-02-16 18:31:00,47.0,43.0,30.31,NNW,336,8.0,10.0,86,0.00,,,0.01,,2013-02-17 02:31:00,
2013-02-16 18:41:00,47.0,43.0,30.31,NNW,336,8.0,10.0,86,0.00,,,0.01,,2013-02-17 02:41:00,
2013-02-16 18:51:00,47.0,43.0,30.31,NNW,331,10.0,12.0,87,0.00,,,0.01,,2013-02-17 02:51:00,
2013-02-16 19:01:00,47.0,43.0,30.31,NNW,328,11.0,14.0,87,0.00,,,0.01,,2013-02-17 03:01:00,
2013-02-16 19:11:00,47.0,43.0,30.31,NNW,328,11.0,14.0,87,0.00,,,0.01,,2013-02-17 03:11:00,
2013-02-16 19:21:00,47.0,44.0,30.32,NNW,344,18.0,22.0,89,0.00,,,0.01,,2013-02-17 03:21:00,
2013-02-16 19:31:00,46.0,43.0,30.32,NNW,346,16.0,19.0,90,0.00,,,0.01,,2013-02-17 03:31:00,
2013-02-16 19:41:00,46.0,43.0,30.32,NNW,346,16.0,19.0,90,0.00,,,0.01,,2013-02-17 03:41:00,
2013-02-16 19:51:00,46.0,44.0,30.32,NNW,344,17.0,21.0,91,0.00,,,0.01,,2013-02-17 03:51:00,
2013-02-16 20:01:00,46.0,44.0,30.32,North,356,15.0,19.0,92,0.00,,,0.01,,2013-02-17 04:01:00,
2013-02-16 20:11:00,46.0,44.0,30.32,North,356,15.0,19.0,92,0.00,,,0.01,,2013-02-17 04:11:00,
2013-02-16 20:21:00,45.0,43.0,30.33,North,352,14.0,16.0,92,0.00,,,0.01,,2013-02-17 04:21:00,
2013-02-16 20:31:00,45.0,43.0,30.33,NNW,343,14.0,18.0,92,0.04,,,0.05,,2013-02-17 04:31:00,
2013-02-16 20:41:00,45.0,43.0,30.33,NNW,343,14.0,18.0,92,0.04,,,0.05,,2013-02-17 04:41:00,
2013-02-16 20:51:00,45.0,43.0,30.33,North,359,10.0,16.0,93,0.05,,,0.06,,2013-02-17 04:51:00,
2013-02-16 21:01:00,45.0,43.0,30.33,NNW,339,14.0,17.0,93,0.05,,,0.06,,2013-02-17 05:01:00,
2013-02-16 21:11:00,45.0,43.0,30.33,NNW,339,14.0,17.0,93,0.05,,,0.06,,2013-02-17 05:11:00,
2013-02-16 21:22:00,44.0,42.0,30.33,NE,44,4.0,10.0,93,0.04,,,0.06,,2013-02-17 05:22:00,
2013-02-16 21:32:00,44.0,42.0,30.33,ENE,68,3.0,8.0,93,0.01,,,0.06,,2013-02-17 05:32:00,
2013-02-16 21:42:00,44.0,42.0,30.33,ENE,68,3.0,8.0,93,0.01,,,0.06,,2013-02-17 05:42:00,
2013-02-16 21:52:00,43.0,41.0,30.33,NNE,32,2.0,8.0,92,0.00,,,0.06,,2013-02-17 05:52:00,
2013-02-16 22:02:00,43.0,41.0,30.33,NE,53,2.0,5.0,92,0.00,,,0.06,,2013-02-17 06:02:00,
2013-02-16 22:11:00,43.0,41.0,30.33,NE,53,2.0,5.0,92,0.00,,,0.06,,2013-02-17 06:11:00,
2013-02-16 22:21:00,42.0,40.0,30.33,NE,50,2.0,4.0,92,0.00,,,0.06,,2013-02-17 06:21:00,
2013-02-16 22:31:00,42.0,40.0,30.33,ENE,64,0.0,3.0,92,0.00,,,0.06,,2013-02-17 06:31:00,
2013-02-16 22:41:00,42.0,40.0,30.33,ENE,64,0.0,3.0,92,0.00,,,0.06,,2013-02-17 06:41:00,
2013-02-16 22:51:00,42.0,40.0,30.34,ENE,64,0.0,0.0,92,0.00,,,0.06,,2013-02-17 06:51:00,
2013-02-16 23:01:00,42.0,40.0,30.34,North,5,2.0,4.0,93,0.00,,,0.06,,2013-02-17 07:01:00,
2013-02-16 23:11:00,42.0,40.0,30.34,North,5,2.0,4.0,93,0.00,,,0.06,,2013-02-17 07:11:00,
2013-02-16 23:21:00,44.0,42.0,30.33,North,349,10.0,18.0,93,0.00,,,0.06,,2013-02-17 07:21:00,
2013-02-16 23:31:00,44.0,42.0,30.32,NNW,336,9.0,11.0,93,0.00,,,0.06,,2013-02-17 07:31:00,
2013-02-16 23:41:00,44.0,42.0,30.32,NNW,336,9.0,11.0,93,0.00,,,0.06,,2013-02-17 07:41:00,
2013-02-16 23:51:00,44.0,42.0,30.32,ENE,71,2.0,12.0,92,0.00,,,0.06,,2013-02-17 07:51:00,